Time;durP1;ratioP1;P1;durP2;ratioP2;P2;SDS_P1;SDS_P2;PMS_P1;PMS_P2;Temp;Humidity;BMP_temperature;BMP_pressure;BME280_temperature;BME280_humidity;BME280_pressure;Samples;Min_cycle;Max_cycle;Signal;HPM_P1;HPM_P2
2022/05/12 00:02:03;;;;;;;11.20;6.35;;;18.20;97.00;;;;;;5006550;28;20021;-72
2022/05/12 00:04:31;;;;;;;9.27;6.07;;;18.20;97.00;;;;;;5010950;28;20125;-71
2022/05/12 00:06:56;;;;;;;7.70;5.28;;;18.20;96.80;;;;;;5011750;28;20476;-72
2022/05/12 00:09:22;;;;;;;8.43;6.13;;;18.20;96.80;;;;;;5015054;28;20068;-72
2022/05/12 00:11:48;;;;;;;7.68;5.57;;;18.20;96.90;;;;;;5008570;28;20075;-72
2022/05/12 00:14:14;;;;;;;8.82;6.15;;;18.20;97.00;;;;;;5006609;28;20046;-72
2022/05/12 00:16:40;;;;;;;9.82;5.95;;;18.30;97.00;;;;;;5005273;28;20044;-72
2022/05/12 00:19:06;;;;;;;9.73;7.32;;;18.20;97.10;;;;;;5035020;28;20045;-72
2022/05/12 00:21:32;;;;;;;12.48;6.18;;;18.20;97.10;;;;;;5005105;28;20504;-72
2022/05/12 00:23:58;;;;;;;12.80;6.43;;;18.00;97.20;;;;;;5005399;28;20177;-72
2022/05/12 00:26:32;;;;;;;10.43;6.95;;;18.00;97.50;;;;;;5012773;28;20133;-72
2022/05/12 00:28:58;;;;;;;;;;;17.90;97.50;;;;;;5009517;28;20045;-72
2022/05/12 00:31:25;;;;;;;15.30;6.28;;;17.90;97.80;;;;;;5001905;28;19909;-71
2022/05/12 00:33:51;;;;;;;13.25;6.57;;;17.80;97.90;;;;;;5002081;28;20400;-72
2022/05/12 00:36:17;;;;;;;14.90;6.38;;;17.80;97.90;;;;;;5005091;28;20034;-71
2022/05/12 00:38:43;;;;;;;8.70;5.90;;;17.70;98.20;;;;;;5009474;28;20116;-71
2022/05/12 00:41:09;;;;;;;8.82;5.20;;;17.50;98.50;;;;;;5009112;28;20165;-72
2022/05/12 00:43:37;;;;;;;11.02;6.22;;;17.40;98.80;;;;;;5013578;28;20121;-72
2022/05/12 00:46:05;;;;;;;9.48;5.68;;;17.20;99.00;;;;;;5002732;28;20153;-72
2022/05/12 00:48:31;;;;;;;9.50;5.75;;;17.40;98.20;;;;;;5012152;28;20105;-72
2022/05/12 00:50:57;;;;;;;10.60;5.07;;;17.20;98.30;;;;;;5009545;28;20034;-72
2022/05/12 00:53:23;;;;;;;15.25;6.35;;;17.10;98.80;;;;;;5009162;28;20034;-72
2022/05/12 00:55:51;;;;;;;17.63;6.28;;;17.00;99.30;;;;;;5017492;28;20499;-72
2022/05/12 00:58:21;;;;;;;8.40;5.90;;;16.90;99.50;;;;;;5013176;28;20033;-72
2022/05/12 01:00:47;;;;;;;8.88;5.15;;;16.90;99.50;;;;;;5010482;28;20064;-72
2022/05/12 01:03:20;;;;;;;13.20;6.80;;;16.80;99.80;;;;;;5004813;28;20073;-72
2022/05/12 01:05:47;;;;;;;9.85;6.32;;;16.90;99.60;;;;;;5007315;28;20034;-72
2022/05/12 01:08:15;;;;;;;9.38;5.88;;;17.00;99.50;;;;;;5013377;28;20484;-72
2022/05/12 01:10:45;;;;;;;11.07;7.03;;;17.10;99.10;;;;;;5007665;28;20030;-72
2022/05/12 01:13:11;;;;;;;11.35;5.63;;;17.00;99.20;;;;;;5001522;28;20036;-72
2022/05/12 01:15:37;;;;;;;10.07;5.78;;;17.00;99.20;;;;;;5008940;28;20042;-72
2022/05/12 01:18:04;;;;;;;12.05;6.57;;;17.00;99.30;;;;;;5007164;28;20547;-71
2022/05/12 01:20:30;;;;;;;11.80;6.20;;;17.00;99.50;;;;;;5010180;28;20109;-71
2022/05/12 01:23:05;;;;;;;7.95;5.97;;;16.90;99.50;;;;;;5009257;28;20109;-71
2022/05/12 01:25:31;;;;;;;9.98;5.90;;;16.90;99.60;;;;;;5005856;28;20038;-72
2022/05/12 01:27:57;;;;;;;9.80;6.07;;;16.90;99.50;;;;;;5010280;28;20029;-71
2022/05/12 01:30:24;;;;;;;12.98;6.32;;;16.90;99.60;;;;;;5009615;28;20034;-71
2022/05/12 01:32:50;;;;;;;10.20;6.72;;;17.00;99.70;;;;;;5002785;28;20420;-71
2022/05/12 01:35:21;;;;;;;13.82;7.30;;;17.20;99.30;;;;;;5011595;28;20437;-72
2022/05/12 01:37:47;;;;;;;12.05;6.78;;;17.40;99.00;;;;;;5020137;28;20384;-71
2022/05/12 01:40:20;;;;;;;9.43;6.10;;;17.30;98.90;;;;;;5030592;28;20040;-71
2022/05/12 01:42:47;;;;;;;16.00;7.35;;;17.30;99.10;;;;;;5018838;28;20083;-72
2022/05/12 01:45:14;;;;;;;10.15;6.38;;;17.10;99.30;;;;;;5005330;28;20025;-72
2022/05/12 01:47:40;;;;;;;9.75;6.45;;;16.90;99.70;;;;;;5006739;28;20069;-71
2022/05/12 01:50:07;;;;;;;10.20;6.50;;;16.90;99.80;;;;;;5010940;28;20207;-72
2022/05/12 01:52:33;;;;;;;9.77;6.40;;;16.90;99.90;;;;;;5010339;28;20057;-71
2022/05/12 01:54:59;;;;;;;10.90;7.18;;;16.90;99.90;;;;;;5000564;28;20193;-72
2022/05/12 01:57:25;;;;;;;12.18;6.65;;;17.00;99.80;;;;;;5003812;28;20041;-71
2022/05/12 01:59:51;;;;;;;10.82;6.68;;;16.80;99.90;;;;;;5013329;28;20077;-72
2022/05/12 02:02:17;;;;;;;11.07;7.18;;;16.70;99.90;;;;;;5007460;28;20036;-71
2022/05/12 02:04:43;;;;;;;12.13;6.63;;;17.20;99.20;;;;;;5003627;28;20039;-71
2022/05/12 02:07:09;;;;;;;10.95;6.30;;;17.10;99.40;;;;;;5009002;28;20153;-72
2022/05/12 02:09:35;;;;;;;13.20;6.90;;;17.20;99.40;;;;;;5009629;28;20109;-71
2022/05/12 02:12:01;;;;;;;10.18;5.93;;;16.90;99.90;;;;;;5006366;28;20592;-71
2022/05/12 02:14:27;;;;;;;9.75;6.57;;;16.80;99.90;;;;;;5012795;28;20128;-71
2022/05/12 02:16:53;;;;;;;9.65;6.63;;;16.60;99.90;;;;;;5006743;28;20487;-71
2022/05/12 02:19:19;;;;;;;17.88;7.32;;;16.40;99.90;;;;;;5010038;28;20026;-72
2022/05/12 02:21:44;;;;;;;8.60;6.07;;;16.40;99.90;;;;;;5002726;28;20066;-72
2022/05/12 02:24:10;;;;;;;10.82;6.38;;;16.30;99.90;;;;;;5009697;28;20475;-71
2022/05/12 02:26:36;;;;;;;9.48;6.28;;;16.30;99.90;;;;;;5010005;28;20108;-72
2022/05/12 02:29:03;;;;;;;9.95;6.40;;;16.30;99.90;;;;;;5024764;28;20064;-72
2022/05/12 02:31:29;;;;;;;11.90;6.50;;;16.30;99.90;;;;;;5018229;28;20034;-72
2022/05/12 02:33:55;;;;;;;10.50;5.57;;;16.30;99.90;;;;;;5007142;28;20045;-71
2022/05/12 02:36:21;;;;;;;10.18;6.68;;;16.20;99.90;;;;;;5010556;28;20431;-72
2022/05/12 02:38:47;;;;;;;10.02;6.18;;;16.00;99.90;;;;;;5003258;28;20033;-72
2022/05/12 02:41:13;;;;;;;10.43;6.20;;;15.90;99.90;;;;;;5010295;28;20068;-72
2022/05/12 02:43:38;;;;;;;10.02;5.72;;;15.80;99.90;;;;;;5008968;28;20706;-71
2022/05/12 02:46:07;;;;;;;10.45;5.75;;;15.80;99.90;;;;;;5004171;28;20061;-72
2022/05/12 02:48:36;;;;;;;8.20;5.53;;;15.80;99.90;;;;;;5017566;28;20472;-71
2022/05/12 02:51:02;;;;;;;10.48;6.20;;;16.00;99.90;;;;;;5014016;28;20026;-71
2022/05/12 02:53:29;;;;;;;7.50;5.40;;;16.00;99.90;;;;;;5008451;28;20104;-71
2022/05/12 02:55:55;;;;;;;11.35;6.63;;;16.10;99.90;;;;;;5011158;28;20041;-71
2022/05/12 02:58:21;;;;;;;12.05;6.47;;;16.10;99.90;;;;;;5000074;28;20042;-72
2022/05/12 03:00:48;;;;;;;10.07;6.20;;;16.10;99.90;;;;;;5008675;28;21880;-70
2022/05/12 03:03:14;;;;;;;11.27;6.28;;;16.00;99.90;;;;;;4997476;28;20559;-70
2022/05/12 03:05:40;;;;;;;11.68;6.03;;;15.90;99.90;;;;;;5003973;28;20038;-69
2022/05/12 03:08:07;;;;;;;11.73;6.45;;;16.00;99.90;;;;;;5006331;28;20041;-70
2022/05/12 03:10:33;;;;;;;12.32;6.10;;;16.00;99.90;;;;;;4991961;28;20044;-70
2022/05/12 03:12:59;;;;;;;9.98;6.05;;;15.80;99.90;;;;;;4999875;28;20083;-69
2022/05/12 03:15:25;;;;;;;13.43;6.75;;;15.90;99.90;;;;;;5000141;28;20042;-69
2022/05/12 03:17:51;;;;;;;10.05;5.80;;;15.90;99.90;;;;;;5001869;28;20029;-70
2022/05/12 03:20:21;;;;;;;8.40;5.60;;;15.70;99.90;;;;;;5006206;28;20026;-69
2022/05/12 03:22:47;;;;;;;10.77;6.57;;;15.80;99.90;;;;;;5012091;28;20034;-70
2022/05/12 03:25:15;;;;;;;12.98;6.47;;;16.20;99.90;;;;;;5008578;28;20030;-69
2022/05/12 03:27:40;;;;;;;10.18;5.63;;;16.10;99.90;;;;;;5003788;28;20042;-70
2022/05/12 03:30:10;;;;;;;12.23;6.20;;;15.80;99.90;;;;;;5008616;28;20026;-70
2022/05/12 03:32:36;;;;;;;11.75;6.72;;;15.60;99.90;;;;;;5005954;28;20030;-70
2022/05/12 03:35:02;;;;;;;9.57;6.63;;;15.90;99.90;;;;;;5005536;28;20808;-70
2022/05/12 03:37:28;;;;;;;11.00;5.88;;;15.90;99.90;;;;;;5009275;28;20522;-70
2022/05/12 03:39:54;;;;;;;10.18;6.75;;;15.80;99.90;;;;;;5012230;28;20041;-70
2022/05/12 03:42:19;;;;;;;10.75;6.32;;;15.70;99.90;;;;;;5002354;28;20026;-70
2022/05/12 03:44:53;;;;;;;15.55;6.22;;;15.60;99.90;;;;;;5006460;28;20363;-70
2022/05/12 03:47:21;;;;;;;9.32;6.05;;;15.80;99.90;;;;;;5005521;28;20033;-69
2022/05/12 03:49:52;;;;;;;8.93;5.53;;;15.80;99.90;;;;;;5007157;28;20606;-70
2022/05/12 03:52:18;;;;;;;15.85;7.20;;;15.70;99.90;;;;;;5005012;28;20041;-70
2022/05/12 03:54:44;;;;;;;9.27;5.85;;;15.80;99.90;;;;;;5006973;28;20046;-69
2022/05/12 03:57:12;;;;;;;9.77;6.00;;;15.80;99.90;;;;;;5008520;28;20045;-71
2022/05/12 03:59:39;;;;;;;10.77;6.00;;;15.60;99.90;;;;;;5007678;28;20050;-69
2022/05/12 04:02:13;;;;;;;13.95;6.05;;;15.50;99.90;;;;;;5004177;28;20088;-69
2022/05/12 04:04:41;;;;;;;;;;;15.50;99.90;;;;;;5001640;28;20103;-69
2022/05/12 04:07:07;;;;;;;10.73;6.00;;;15.50;99.90;;;;;;5008607;28;19909;-71
2022/05/12 04:09:33;;;;;;;13.18;5.88;;;15.40;99.90;;;;;;4999628;28;20049;-70
2022/05/12 04:11:59;;;;;;;11.75;6.07;;;15.50;99.90;;;;;;4999868;28;20460;-70
2022/05/12 04:14:24;;;;;;;14.63;6.22;;;15.30;99.90;;;;;;5010491;28;20121;-69
2022/05/12 04:16:50;;;;;;;11.00;6.32;;;15.30;99.90;;;;;;5000624;28;21552;-69
2022/05/12 04:19:16;;;;;;;10.32;6.43;;;15.40;99.90;;;;;;5007467;28;20850;-69
2022/05/12 04:21:42;;;;;;;13.32;6.55;;;15.50;99.90;;;;;;5006625;28;20055;-70
2022/05/12 04:24:09;;;;;;;11.15;7.15;;;15.60;99.90;;;;;;5008643;28;20041;-69
2022/05/12 04:26:36;;;;;;;13.75;5.68;;;15.70;99.90;;;;;;5006728;28;20038;-69
2022/05/12 04:29:05;;;;;;;9.45;6.18;;;15.80;99.90;;;;;;5008039;28;20447;-70
2022/05/12 04:31:31;;;;;;;12.25;7.03;;;16.00;99.90;;;;;;4997105;28;20646;-71
2022/05/12 04:36:41;;;;;;;9.00;6.70;;;16.00;99.90;;;;;;4999115;28;21078;-70
2022/05/12 04:39:08;;;;;;;11.00;7.47;;;15.90;99.90;;;;;;5007168;28;20149;-69
2022/05/12 04:41:34;;;;;;;11.73;6.93;;;15.90;99.90;;;;;;4997690;28;20038;-69
2022/05/12 04:44:00;;;;;;;13.02;6.50;;;15.90;99.90;;;;;;5004691;28;20176;-69
2022/05/12 04:46:27;;;;;;;10.13;6.00;;;15.80;99.90;;;;;;5003343;28;20523;-70
2022/05/12 04:48:52;;;;;;;13.55;7.20;;;15.50;99.90;;;;;;5004231;28;20049;-70
2022/05/12 04:51:18;;;;;;;8.73;5.70;;;15.60;99.90;;;;;;4995942;28;20091;-69
2022/05/12 04:53:45;;;;;;;10.65;6.43;;;15.60;99.90;;;;;;4999999;28;20125;-69
2022/05/12 04:56:11;;;;;;;14.75;7.07;;;15.70;99.90;;;;;;4996881;28;20041;-69
2022/05/12 04:58:37;;;;;;;11.20;6.75;;;15.80;99.90;;;;;;5017494;28;20034;-69
2022/05/12 05:01:03;;;;;;;13.52;6.57;;;15.80;99.90;;;;;;5012739;28;20080;-69
2022/05/12 05:03:28;;;;;;;10.35;5.75;;;15.80;99.90;;;;;;5023250;28;20049;-69
2022/05/12 05:05:54;;;;;;;9.23;5.38;;;15.70;99.90;;;;;;5010729;28;20033;-69
2022/05/12 05:08:22;;;;;;;7.90;5.72;;;15.70;99.90;;;;;;5005213;28;20033;-70
2022/05/12 05:10:49;;;;;;;11.38;7.00;;;15.70;99.90;;;;;;5003055;28;20026;-69
2022/05/12 05:13:18;;;;;;;9.52;5.85;;;15.70;99.90;;;;;;5000079;28;20468;-69
2022/05/12 05:15:44;;;;;;;11.73;6.25;;;15.70;99.90;;;;;;5003227;28;20488;-69
2022/05/12 05:18:12;;;;;;;9.30;5.50;;;15.80;99.90;;;;;;5007065;28;20038;-70
2022/05/12 05:20:38;;;;;;;9.55;6.75;;;16.00;99.90;;;;;;5005578;28;20041;-69
2022/05/12 05:23:04;;;;;;;10.93;6.68;;;16.00;99.90;;;;;;5002011;28;20576;-69
2022/05/12 05:25:31;;;;;;;10.05;6.57;;;16.00;99.90;;;;;;5003339;28;20044;-70
2022/05/12 05:27:57;;;;;;;10.98;6.78;;;16.00;99.90;;;;;;5002855;28;20045;-71
2022/05/12 05:30:25;;;;;;;11.15;6.53;;;16.10;99.90;;;;;;5000622;28;20030;-70
2022/05/12 05:32:51;;;;;;;7.63;6.40;;;16.20;99.90;;;;;;4993129;28;20038;-71
2022/05/12 05:35:17;;;;;;;19.27;6.55;;;16.30;99.90;;;;;;5005412;28;20038;-71
2022/05/12 05:37:44;;;;;;;19.67;7.47;;;16.40;99.90;;;;;;5005775;28;20046;-71
2022/05/12 05:40:14;;;;;;;17.67;8.00;;;16.30;99.90;;;;;;4999480;28;20041;-71
2022/05/12 05:42:41;;;;;;;15.65;7.18;;;16.40;99.90;;;;;;5005436;28;20046;-71
2022/05/12 05:45:12;;;;;;;11.57;6.88;;;16.50;99.90;;;;;;4993753;28;20033;-71
2022/05/12 05:47:39;;;;;;;10.77;6.88;;;16.60;99.90;;;;;;5005910;28;20034;-71
2022/05/12 05:50:09;;;;;;;11.18;6.05;;;16.60;99.90;;;;;;5000831;28;20477;-71
2022/05/12 05:55:19;;;;;;;14.30;6.18;;;16.90;99.90;;;;;;5001263;28;20052;-71
2022/05/12 05:57:45;;;;;;;11.88;6.78;;;17.20;99.90;;;;;;5005447;28;20037;-71
2022/05/12 06:00:12;;;;;;;27.05;8.90;;;17.20;99.90;;;;;;5004218;28;20573;-71
2022/05/12 06:02:38;;;;;;;9.75;7.25;;;17.30;99.90;;;;;;4998198;28;21675;-71
2022/05/12 06:05:05;;;;;;;14.77;8.25;;;17.30;99.90;;;;;;5002649;28;20117;-71
2022/05/12 06:07:34;;;;;;;15.35;8.35;;;17.20;99.90;;;;;;4991411;28;20028;-71
2022/05/12 06:10:01;;;;;;;14.07;7.88;;;17.30;99.90;;;;;;4997305;28;20423;-71
2022/05/12 06:12:27;;;;;;;11.02;6.80;;;17.30;99.90;;;;;;5005510;28;20051;-71
2022/05/12 06:14:53;;;;;;;12.43;7.57;;;17.30;99.90;;;;;;5004032;28;20487;-71
2022/05/12 06:17:19;;;;;;;33.10;10.23;;;17.60;99.90;;;;;;5002362;28;20037;-71
2022/05/12 06:19:44;;;;;;;24.80;9.30;;;17.60;99.90;;;;;;4989449;28;20475;-71
2022/05/12 06:22:10;;;;;;;11.52;7.07;;;17.50;99.90;;;;;;5000745;28;20469;-71
2022/05/12 06:24:38;;;;;;;11.48;7.50;;;17.50;99.90;;;;;;4994217;28;20026;-72
2022/05/12 06:27:04;;;;;;;16.63;8.93;;;17.50;99.90;;;;;;5005081;28;20164;-71
2022/05/12 06:29:30;;;;;;;14.82;8.73;;;17.50;99.90;;;;;;4998685;28;20038;-71
2022/05/12 06:31:56;;;;;;;28.17;9.93;;;17.50;99.90;;;;;;4995946;28;20084;-71
2022/05/12 06:34:21;;;;;;;18.73;8.63;;;17.50;99.90;;;;;;5003412;28;20080;-71
2022/05/12 06:36:47;;;;;;;13.88;8.27;;;17.60;99.90;;;;;;5003747;28;20974;-71
2022/05/12 06:39:13;;;;;;;12.50;7.78;;;17.70;99.90;;;;;;4999524;28;20022;-71
2022/05/12 06:41:38;;;;;;;14.77;8.63;;;17.90;99.90;;;;;;4999928;28;20921;-71
2022/05/12 06:44:05;;;;;;;13.05;9.02;;;18.10;99.90;;;;;;4999434;28;20030;-71
2022/05/12 06:46:31;;;;;;;10.95;7.28;;;18.40;99.90;;;;;;4996767;28;20029;-71
2022/05/12 06:48:57;;;;;;;15.93;9.20;;;18.60;99.90;;;;;;4991691;28;20436;-71
2022/05/12 06:51:23;;;;;;;17.10;8.77;;;18.80;99.90;;;;;;4988808;28;20038;-71
2022/05/12 06:53:48;;;;;;;10.60;7.45;;;19.10;99.30;;;;;;4977096;28;20069;-71
2022/05/12 06:56:14;;;;;;;11.05;7.45;;;19.30;98.90;;;;;;5011992;28;20037;-71
2022/05/12 06:58:40;;;;;;;17.15;8.27;;;19.60;98.50;;;;;;5005902;28;20067;-70
2022/05/12 07:01:06;;;;;;;12.27;7.82;;;19.60;98.40;;;;;;5001793;28;20099;-71
2022/05/12 07:03:32;;;;;;;14.48;8.00;;;19.70;98.00;;;;;;5024539;28;20107;-71
2022/05/12 07:05:58;;;;;;;14.50;8.50;;;19.70;98.40;;;;;;5012710;28;20906;-71
2022/05/12 07:08:27;;;;;;;11.38;7.35;;;20.10;98.20;;;;;;4996410;28;20092;-71
2022/05/12 07:10:52;;;;;;;17.83;8.18;;;20.10;98.10;;;;;;5002516;28;20750;-70
2022/05/12 07:13:20;;;;;;;16.48;7.32;;;20.40;97.50;;;;;;5001479;28;20145;-71
2022/05/12 07:15:47;;;;;;;13.27;7.60;;;21.00;96.80;;;;;;5023693;28;20047;-71
2022/05/12 07:18:18;;;;;;;15.63;7.20;;;21.80;95.40;;;;;;5004590;28;20034;-71
2022/05/12 07:28:57;;;;;;;12.77;7.80;;;24.80;90.80;;;;;;4998603;28;20389;-69
2022/05/12 07:31:23;;;;;;;13.55;6.85;;;25.10;90.20;;;;;;5004620;28;20029;-69
2022/05/12 07:33:49;;;;;;;10.50;7.00;;;25.20;90.20;;;;;;4999103;28;20372;-69
2022/05/12 07:36:17;;;;;;;14.80;6.90;;;25.30;90.20;;;;;;5004678;28;20034;-69
2022/05/12 07:38:43;;;;;;;10.45;6.90;;;25.00;89.60;;;;;;5012944;28;20034;-69
2022/05/12 07:41:12;;;;;;;15.30;7.20;;;25.20;90.10;;;;;;5004506;28;20037;-69
2022/05/12 07:43:43;;;;;;;11.15;7.10;;;24.50;90.20;;;;;;5002881;28;20129;-69
2022/05/12 07:46:11;;;;;;;11.85;7.13;;;24.70;89.80;;;;;;5003929;28;20038;-69
2022/05/12 07:48:36;;;;;;;31.80;8.85;;;24.70;89.30;;;;;;5002217;28;20034;-71
2022/05/12 07:51:02;;;;;;;11.88;7.20;;;25.20;90.00;;;;;;5013801;28;20532;-71
2022/05/12 07:53:28;;;;;;;11.20;7.57;;;24.90;89.50;;;;;;5007806;28;20121;-72
2022/05/12 07:55:54;;;;;;;20.08;7.18;;;23.10;91.10;;;;;;5004523;28;20034;-71
2022/05/12 07:58:20;;;;;;;10.35;7.55;;;22.20;92.70;;;;;;4991391;28;20026;-71
2022/05/12 08:00:46;;;;;;;12.13;7.32;;;21.70;93.40;;;;;;5001924;28;20092;-71
2022/05/12 08:03:11;;;;;;;11.13;7.18;;;21.40;94.10;;;;;;4999409;28;20092;-71
2022/05/12 08:05:38;;;;;;;12.32;6.75;;;21.40;94.10;;;;;;5005161;28;20105;-71
2022/05/12 08:08:05;;;;;;;12.27;6.95;;;23.00;91.60;;;;;;5000302;28;20033;-71
2022/05/12 08:10:31;;;;;;;14.13;6.88;;;23.70;90.60;;;;;;5006932;28;20488;-71
2022/05/12 08:12:57;;;;;;;13.70;6.80;;;24.60;90.00;;;;;;5007953;28;20037;-71
2022/05/12 08:15:25;;;;;;;12.18;6.97;;;24.70;89.50;;;;;;5006855;28;20046;-71
2022/05/12 08:17:52;;;;;;;10.98;6.70;;;24.90;90.20;;;;;;5004204;28;20041;-71
2022/05/12 08:20:18;;;;;;;11.93;7.13;;;24.50;90.10;;;;;;5001425;28;20022;-71
2022/05/12 08:22:44;;;;;;;16.25;7.78;;;24.50;90.40;;;;;;5006355;28;20022;-71
2022/05/12 08:25:10;;;;;;;11.75;6.57;;;23.90;90.70;;;;;;5006574;28;20479;-71
2022/05/12 08:27:36;;;;;;;13.90;6.90;;;23.70;91.10;;;;;;5005852;28;20563;-71
2022/05/12 08:30:04;;;;;;;17.13;8.32;;;23.10;91.60;;;;;;5007339;28;20034;-71
2022/05/12 08:32:30;;;;;;;12.27;6.57;;;22.80;91.90;;;;;;5001263;28;20508;-71
2022/05/12 08:34:55;;;;;;;11.57;6.97;;;22.70;92.10;;;;;;5005594;28;20030;-71
2022/05/12 08:37:22;;;;;;;16.10;7.88;;;22.50;92.00;;;;;;5005022;28;20121;-71
2022/05/12 08:39:49;;;;;;;14.02;7.50;;;22.70;92.90;;;;;;5004031;28;20571;-71
2022/05/12 08:42:28;;;;;;;10.13;6.78;;;22.90;92.30;;;;;;5007327;28;20108;-71
2022/05/12 08:44:56;;;;;;;9.40;6.28;;;22.70;92.60;;;;;;5003578;28;20026;-71
2022/05/12 08:47:43;;;;;;;13.10;7.03;;;22.60;92.00;;;;;;4999765;28;20034;-71
2022/05/12 08:50:18;;;;;;;10.45;6.78;;;22.70;92.00;;;;;;5005623;28;20025;-71
2022/05/12 08:52:52;;;;;;;9.57;7.20;;;22.50;91.90;;;;;;5001890;28;20029;-71
2022/05/12 08:55:29;;;;;;;9.85;7.20;;;22.90;91.70;;;;;;5006554;28;20029;-71
2022/05/12 08:58:04;;;;;;;17.42;7.10;;;22.60;91.70;;;;;;5005403;28;20022;-71
2022/05/12 09:00:51;;;;;;;11.60;6.90;;;22.70;91.90;;;;;;5006035;28;20045;-71
2022/05/12 09:03:33;;;;;;;16.85;7.60;;;23.00;91.60;;;;;;5006908;28;20050;-71
2022/05/12 09:06:11;;;;;;;12.60;6.90;;;22.40;91.70;;;;;;5007640;28;20022;-71
2022/05/12 09:09:21;;;;;;;11.43;6.30;;;22.80;91.80;;;;;;5004721;28;20065;-71
2022/05/12 09:11:47;;;;;;;11.80;6.43;;;23.30;92.20;;;;;;5007710;28;20432;-71
2022/05/12 09:14:21;;;;;;;12.02;7.13;;;23.60;92.00;;;;;;5026856;28;20045;-69
2022/05/12 09:16:51;;;;;;;;;;;23.40;91.40;;;;;;5024429;28;20502;-71
2022/05/12 09:19:19;;;;;;;9.60;6.55;;;23.60;91.40;;;;;;5026982;28;19916;-71
2022/05/12 09:21:45;;;;;;;10.68;7.20;;;23.70;90.80;;;;;;5025877;28;20029;-69
2022/05/12 09:24:11;;;;;;;10.77;6.10;;;23.40;91.00;;;;;;5023124;28;20037;-69
2022/05/12 09:26:48;;;;;;;9.52;6.72;;;23.50;91.20;;;;;;5004921;28;20214;-71
2022/05/12 09:29:29;;;;;;;10.05;6.38;;;23.90;91.10;;;;;;5002086;28;20029;-71
2022/05/12 09:32:03;;;;;;;9.82;6.40;;;24.00;90.90;;;;;;5001785;28;20121;-71
2022/05/12 09:34:33;;;;;;;9.32;6.82;;;24.00;90.10;;;;;;4996797;28;20686;-71
2022/05/12 09:37:25;;;;;;;13.13;6.88;;;24.30;90.20;;;;;;5004569;28;20469;-71
2022/05/12 09:39:54;;;;;;;11.43;5.95;;;24.60;90.30;;;;;;4997848;28;20037;-71
2022/05/12 09:42:28;;;;;;;10.95;6.03;;;24.40;89.90;;;;;;5000774;28;20034;-71
2022/05/12 09:45:01;;;;;;;11.95;6.45;;;24.30;89.70;;;;;;4997400;28;20033;-71
2022/05/12 09:47:29;;;;;;;14.93;6.10;;;24.30;90.00;;;;;;5006033;28;20433;-71
2022/05/12 09:50:20;;;;;;;15.73;6.63;;;24.70;90.50;;;;;;5004491;28;20117;-71
2022/05/12 09:53:00;;;;;;;13.30;6.45;;;24.80;88.80;;;;;;5003531;28;20517;-71
2022/05/12 09:55:33;;;;;;;11.32;7.05;;;25.20;90.40;;;;;;5003631;28;20037;-71
2022/05/12 09:58:05;;;;;;;10.55;6.05;;;25.20;90.60;;;;;;5004572;28;20168;-69
2022/05/12 10:00:50;;;;;;;11.90;6.00;;;25.40;89.70;;;;;;5001997;28;20037;-71
2022/05/12 10:09:05;;;;;;;10.88;6.40;;;25.20;90.00;;;;;;4975386;28;19928;-71
2022/05/12 10:11:52;;;;;;;12.18;6.30;;;25.50;89.80;;;;;;4978126;28;20045;-71
2022/05/12 10:14:30;;;;;;;8.35;5.38;;;25.80;89.00;;;;;;4998363;28;20037;-71
2022/05/12 10:17:00;;;;;;;9.98;6.68;;;26.10;89.30;;;;;;4998682;28;20512;-71
2022/05/12 10:19:27;;;;;;;8.02;4.95;;;26.10;87.00;;;;;;4995425;28;20069;-71
2022/05/12 10:22:07;;;;;;;8.27;5.15;;;26.30;88.00;;;;;;4997493;28;20506;-71
2022/05/12 10:24:42;;;;;;;12.15;5.68;;;26.60;87.80;;;;;;4997008;28;20531;-71
2022/05/12 10:27:32;;;;;;;11.73;6.03;;;26.20;88.30;;;;;;5003878;28;20171;-71
2022/05/12 10:30:02;;;;;;;10.82;5.82;;;26.50;87.30;;;;;;5005524;28;20030;-71
2022/05/12 10:32:41;;;;;;;8.50;5.18;;;26.60;89.30;;;;;;5005923;28;20053;-71
2022/05/12 10:35:41;;;;;;;9.45;5.72;;;26.50;87.50;;;;;;5006714;28;20105;-71
2022/05/12 10:38:14;;;;;;;9.65;5.65;;;26.40;87.50;;;;;;5004908;28;20030;-71
2022/05/12 10:40:52;;;;;;;7.72;5.65;;;26.50;88.30;;;;;;4999186;28;20108;-71
2022/05/12 10:43:46;;;;;;;8.90;4.97;;;26.60;85.60;;;;;;4994987;28;20093;-71
2022/05/12 10:46:30;;;;;;;8.98;4.70;;;26.30;84.70;;;;;;4999607;28;20504;-71
2022/05/12 10:49:11;;;;;;;9.57;4.75;;;26.70;85.30;;;;;;5005668;28;20105;-71
2022/05/12 10:51:45;;;;;;;6.78;4.55;;;27.00;83.60;;;;;;5002604;28;20531;-71
2022/05/12 10:54:26;;;;;;;12.82;4.50;;;26.90;84.40;;;;;;5001803;28;20121;-71
2022/05/12 10:57:08;;;;;;;11.65;4.45;;;27.10;83.10;;;;;;5001068;28;20049;-71
2022/05/12 10:59:52;;;;;;;8.10;4.10;;;27.40;83.50;;;;;;4999805;28;20034;-71
2022/05/12 11:02:35;;;;;;;7.93;4.43;;;27.20;83.70;;;;;;5006469;28;20030;-71
2022/05/12 11:05:19;;;;;;;9.23;4.95;;;27.30;83.50;;;;;;5003097;28;20074;-71
2022/05/12 11:07:52;;;;;;;9.90;5.07;;;27.50;81.60;;;;;;5003896;28;20037;-71
2022/05/12 11:10:29;;;;;;;15.68;4.78;;;27.50;84.40;;;;;;5007119;28;20476;-71
2022/05/12 11:13:02;;;;;;;8.50;4.78;;;28.00;85.20;;;;;;5001009;28;21701;-71
2022/05/12 11:15:38;;;;;;;7.32;4.90;;;28.10;82.60;;;;;;4999481;28;20050;-71
2022/05/12 11:18:09;;;;;;;11.43;5.40;;;28.10;81.90;;;;;;5008062;28;20033;-71
2022/05/12 11:20:40;;;;;;;8.75;4.72;;;28.00;82.50;;;;;;4998356;28;20594;-71
2022/05/12 11:23:37;;;;;;;8.77;4.82;;;28.10;83.30;;;;;;5002363;28;20397;-71
2022/05/12 11:26:12;;;;;;;6.32;4.13;;;28.50;82.90;;;;;;5004166;28;20069;-71
2022/05/12 11:31:31;;;;;;;6.73;4.63;;;28.10;80.70;;;;;;5006954;28;20048;-71
2022/05/12 11:34:06;;;;;;;8.25;4.75;;;28.10;81.30;;;;;;5007535;28;20038;-71
2022/05/12 11:36:41;;;;;;;10.38;4.82;;;28.30;81.30;;;;;;5005774;28;20030;-71
2022/05/12 11:39:28;;;;;;;10.98;4.93;;;28.30;80.60;;;;;;5009343;28;20034;-71
2022/05/12 11:45:47;;;;;;;9.70;4.93;;;28.40;82.90;;;;;;4982502;28;20061;-71
2022/05/12 11:48:18;;;;;;;8.65;4.47;;;28.40;81.80;;;;;;4982529;28;20671;-71
2022/05/12 11:51:25;;;;;;;8.77;4.07;;;28.20;80.30;;;;;;5006822;28;20042;-71
2022/05/12 11:53:57;;;;;;;13.13;4.93;;;28.50;80.70;;;;;;5009604;28;20102;-71
2022/05/12 11:56:44;;;;;;;6.47;3.85;;;28.50;80.80;;;;;;5008394;28;20061;-71
2022/05/12 11:59:41;;;;;;;7.68;4.03;;;28.70;80.70;;;;;;5004564;28;20034;-70
2022/05/12 12:02:29;;;;;;;6.35;4.10;;;28.50;79.70;;;;;;5006639;28;20061;-71
2022/05/12 12:05:08;;;;;;;6.47;4.03;;;28.60;81.10;;;;;;5002360;28;20654;-71
2022/05/12 12:07:35;;;;;;;7.35;4.03;;;28.90;80.20;;;;;;5012429;28;20033;-71
2022/05/12 12:10:31;;;;;;;10.98;4.25;;;28.70;79.00;;;;;;5019208;28;20029;-71
2022/05/12 12:13:20;;;;;;;8.18;4.38;;;28.70;80.50;;;;;;5021740;28;20038;-71
2022/05/12 12:16:13;;;;;;;7.43;4.53;;;28.60;79.40;;;;;;5007831;28;20401;-71
2022/05/12 12:18:39;;;;;;;9.20;4.22;;;28.90;79.10;;;;;;5008791;28;20032;-71
2022/05/12 12:21:25;;;;;;;6.65;3.47;;;28.80;78.60;;;;;;5029326;28;20525;-71
2022/05/12 12:24:16;;;;;;;8.30;4.57;;;29.20;78.00;;;;;;5009975;28;20138;-71
2022/05/12 12:26:44;;;;;;;6.97;3.78;;;29.20;78.00;;;;;;5007538;28;20610;-71
2022/05/12 12:29:10;;;;;;;8.55;5.25;;;29.40;79.80;;;;;;5007325;28;20041;-71
2022/05/12 12:31:48;;;;;;;6.68;4.07;;;28.90;78.60;;;;;;5009886;28;20030;-71
2022/05/12 12:34:44;;;;;;;8.55;4.15;;;29.00;78.60;;;;;;5006838;28;20041;-71
2022/05/12 12:37:10;;;;;;;11.07;4.80;;;29.30;79.00;;;;;;5007539;28;20105;-71
2022/05/12 12:39:41;;;;;;;9.95;4.38;;;29.00;78.90;;;;;;5009996;28;20610;-71
2022/05/12 12:42:34;;;;;;;9.30;4.80;;;29.00;78.90;;;;;;5004602;28;20053;-71
2022/05/12 12:45:09;;;;;;;11.90;4.43;;;29.00;79.30;;;;;;5001457;28;20026;-71
2022/05/12 12:47:49;;;;;;;8.30;4.35;;;29.00;78.90;;;;;;5016281;28;20028;-71
2022/05/12 12:50:21;;;;;;;10.15;3.70;;;29.00;78.90;;;;;;5013350;28;20117;-70
2022/05/12 12:52:48;;;;;;;7.72;4.45;;;28.80;78.60;;;;;;5008635;28;20030;-70
2022/05/12 12:58:38;;;;;;;12.30;4.70;;;29.30;77.20;;;;;;5015910;28;20081;-71
2022/05/12 13:01:17;;;;;;;6.43;4.03;;;29.40;79.20;;;;;;5000030;28;20188;-71
2022/05/12 13:03:47;;;;;;;9.38;4.55;;;29.30;78.60;;;;;;5020985;28;20103;-70
2022/05/12 13:06:25;;;;;;;15.40;5.30;;;29.30;78.70;;;;;;5020439;28;20038;-70
2022/05/12 13:09:29;;;;;;;12.55;5.03;;;29.40;78.80;;;;;;5009205;28;20132;-70
2022/05/12 13:12:21;;;;;;;10.63;4.57;;;29.10;79.20;;;;;;5005667;28;20042;-71
2022/05/12 13:14:50;;;;;;;11.45;5.80;;;29.00;79.30;;;;;;5001859;28;20034;-70
2022/05/12 13:17:31;;;;;;;7.03;3.85;;;29.10;80.10;;;;;;5009198;28;20038;-70
2022/05/12 13:20:00;;;;;;;12.48;5.50;;;29.20;79.10;;;;;;5009539;28;20129;-71
2022/05/12 13:22:30;;;;;;;8.60;4.90;;;29.30;79.70;;;;;;5009433;28;20068;-71
2022/05/12 13:24:57;;;;;;;17.15;6.10;;;29.50;79.70;;;;;;5003604;28;20026;-70
2022/05/12 13:27:29;;;;;;;7.25;4.22;;;29.30;79.10;;;;;;5003342;28;20088;-71